sensor_id;sensor_type;location;lat;lon;timestamp;temperature;humidity
44229;DHT22;29904;51.058;5.378;2022-07-10T00:00:37;13.70;99.90
44229;DHT22;29904;51.058;5.378;2022-07-10T00:03:03;13.70;99.90
44229;DHT22;29904;51.058;5.378;2022-07-10T00:05:31;13.60;99.90
44229;DHT22;29904;51.058;5.378;2022-07-10T00:07:57;13.60;99.90
44229;DHT22;29904;51.058;5.378;2022-07-10T00:10:23;13.50;99.90
44229;DHT22;29904;51.058;5.378;2022-07-10T00:12:51;13.50;99.90
44229;DHT22;29904;51.058;5.378;2022-07-10T00:15:18;13.50;99.90
44229;DHT22;29904;51.058;5.378;2022-07-10T00:17:44;13.40;99.90
44229;DHT22;29904;51.058;5.378;2022-07-10T00:20:11;13.40;99.90
44229;DHT22;29904;51.058;5.378;2022-07-10T00:22:38;13.40;99.90
44229;DHT22;29904;51.058;5.378;2022-07-10T00:25:05;13.30;99.90
44229;DHT22;29904;51.058;5.378;2022-07-10T00:27:33;13.30;99.90
44229;DHT22;29904;51.058;5.378;2022-07-10T00:29:59;13.30;99.90
44229;DHT22;29904;51.058;5.378;2022-07-10T00:32:25;13.30;99.90
44229;DHT22;29904;51.058;5.378;2022-07-10T00:34:53;13.30;99.90
44229;DHT22;29904;51.058;5.378;2022-07-10T00:37:19;13.20;99.90
44229;DHT22;29904;51.058;5.378;2022-07-10T00:39:47;13.20;99.90
44229;DHT22;29904;51.058;5.378;2022-07-10T00:42:14;13.20;99.90
44229;DHT22;29904;51.058;5.378;2022-07-10T00:44:41;13.20;99.90
44229;DHT22;29904;51.058;5.378;2022-07-10T00:47:09;13.10;99.90
44229;DHT22;29904;51.058;5.378;2022-07-10T00:49:38;13.10;99.90
44229;DHT22;29904;51.058;5.378;2022-07-10T00:52:06;13.00;99.90
44229;DHT22;29904;51.058;5.378;2022-07-10T00:54:33;12.90;99.90
44229;DHT22;29904;51.058;5.378;2022-07-10T00:57:03;12.90;99.90
44229;DHT22;29904;51.058;5.378;2022-07-10T00:59:29;12.90;99.90
44229;DHT22;29904;51.058;5.378;2022-07-10T01:01:55;12.90;99.90
44229;DHT22;29904;51.058;5.378;2022-07-10T01:04:21;12.90;99.90
44229;DHT22;29904;51.058;5.378;2022-07-10T01:06:46;12.90;99.90
44229;DHT22;29904;51.058;5.378;2022-07-10T01:09:12;12.90;99.90
44229;DHT22;29904;51.058;5.378;2022-07-10T01:11:40;12.80;99.90
44229;DHT22;29904;51.058;5.378;2022-07-10T01:14:06;12.80;99.90
44229;DHT22;29904;51.058;5.378;2022-07-10T01:16:31;12.80;99.90
44229;DHT22;29904;51.058;5.378;2022-07-10T01:18:58;12.80;99.90
44229;DHT22;29904;51.058;5.378;2022-07-10T01:21:35;12.70;99.90
44229;DHT22;29904;51.058;5.378;2022-07-10T01:24:06;12.70;99.90
44229;DHT22;29904;51.058;5.378;2022-07-10T01:26:32;12.60;99.90
44229;DHT22;29904;51.058;5.378;2022-07-10T01:29:00;12.60;99.90
44229;DHT22;29904;51.058;5.378;2022-07-10T01:31:27;12.60;99.90
44229;DHT22;29904;51.058;5.378;2022-07-10T01:33:53;12.60;99.90
44229;DHT22;29904;51.058;5.378;2022-07-10T01:36:21;12.50;99.90
44229;DHT22;29904;51.058;5.378;2022-07-10T01:38:52;12.50;99.90
44229;DHT22;29904;51.058;5.378;2022-07-10T01:41:18;12.50;99.90
44229;DHT22;29904;51.058;5.378;2022-07-10T01:43:47;12.50;99.90
44229;DHT22;29904;51.058;5.378;2022-07-10T01:46:16;12.40;99.90
44229;DHT22;29904;51.058;5.378;2022-07-10T01:48:42;12.40;99.90
44229;DHT22;29904;51.058;5.378;2022-07-10T01:51:10;12.40;99.90
44229;DHT22;29904;51.058;5.378;2022-07-10T01:53:36;12.40;99.90
44229;DHT22;29904;51.058;5.378;2022-07-10T01:56:05;12.40;99.90
44229;DHT22;29904;51.058;5.378;2022-07-10T01:58:31;12.40;99.90
44229;DHT22;29904;51.058;5.378;2022-07-10T02:00:58;12.30;99.90
44229;DHT22;29904;51.058;5.378;2022-07-10T02:03:24;12.30;99.90
44229;DHT22;29904;51.058;5.378;2022-07-10T02:06:08;12.30;99.90
44229;DHT22;29904;51.058;5.378;2022-07-10T02:08:34;12.30;99.90
44229;DHT22;29904;51.058;5.378;2022-07-10T02:11:00;12.20;99.90
44229;DHT22;29904;51.058;5.378;2022-07-10T02:13:25;12.20;99.90
44229;DHT22;29904;51.058;5.378;2022-07-10T02:15:56;12.20;99.90
44229;DHT22;29904;51.058;5.378;2022-07-10T02:18:22;12.20;99.90
44229;DHT22;29904;51.058;5.378;2022-07-10T02:20:48;12.10;99.90
44229;DHT22;29904;51.058;5.378;2022-07-10T02:23:14;12.10;99.90
44229;DHT22;29904;51.058;5.378;2022-07-10T02:25:42;12.10;99.90
44229;DHT22;29904;51.058;5.378;2022-07-10T02:28:08;12.10;99.90
44229;DHT22;29904;51.058;5.378;2022-07-10T02:30:34;12.10;99.90
44229;DHT22;29904;51.058;5.378;2022-07-10T02:33:00;12.10;99.90
44229;DHT22;29904;51.058;5.378;2022-07-10T02:35:26;12.10;99.90
44229;DHT22;29904;51.058;5.378;2022-07-10T02:37:52;12.10;99.90
44229;DHT22;29904;51.058;5.378;2022-07-10T02:40:20;12.10;99.90
44229;DHT22;29904;51.058;5.378;2022-07-10T02:42:48;12.10;99.90
44229;DHT22;29904;51.058;5.378;2022-07-10T02:45:13;12.10;99.90
44229;DHT22;29904;51.058;5.378;2022-07-10T02:47:39;12.10;99.90
44229;DHT22;29904;51.058;5.378;2022-07-10T02:50:07;12.10;99.90
44229;DHT22;29904;51.058;5.378;2022-07-10T02:52:33;12.10;99.90
44229;DHT22;29904;51.058;5.378;2022-07-10T02:54:58;12.10;99.90
44229;DHT22;29904;51.058;5.378;2022-07-10T02:57:24;12.10;99.90
44229;DHT22;29904;51.058;5.378;2022-07-10T02:59:51;12.10;99.90
44229;DHT22;29904;51.058;5.378;2022-07-10T03:02:16;12.10;99.90
44229;DHT22;29904;51.058;5.378;2022-07-10T03:04:42;12.10;99.90
44229;DHT22;29904;51.058;5.378;2022-07-10T03:07:08;12.10;99.90
44229;DHT22;29904;51.058;5.378;2022-07-10T03:09:34;12.10;99.90
44229;DHT22;29904;51.058;5.378;2022-07-10T03:11:59;12.10;99.90
44229;DHT22;29904;51.058;5.378;2022-07-10T03:14:27;12.10;99.90
44229;DHT22;29904;51.058;5.378;2022-07-10T03:16:55;12.10;99.90
44229;DHT22;29904;51.058;5.378;2022-07-10T03:19:21;12.10;99.90
44229;DHT22;29904;51.058;5.378;2022-07-10T03:21:46;12.00;99.90
44229;DHT22;29904;51.058;5.378;2022-07-10T03:24:14;12.00;99.90
44229;DHT22;29904;51.058;5.378;2022-07-10T03:26:40;12.00;99.90
44229;DHT22;29904;51.058;5.378;2022-07-10T03:29:06;12.00;99.90
44229;DHT22;29904;51.058;5.378;2022-07-10T03:31:33;12.00;99.90
44229;DHT22;29904;51.058;5.378;2022-07-10T03:33:59;12.00;99.90
44229;DHT22;29904;51.058;5.378;2022-07-10T03:36:25;11.90;99.90
44229;DHT22;29904;51.058;5.378;2022-07-10T03:38:50;11.90;99.90
44229;DHT22;29904;51.058;5.378;2022-07-10T03:41:16;11.90;99.90
44229;DHT22;29904;51.058;5.378;2022-07-10T03:43:42;11.90;99.90
44229;DHT22;29904;51.058;5.378;2022-07-10T03:46:07;11.90;99.90
44229;DHT22;29904;51.058;5.378;2022-07-10T03:48:35;11.90;99.90
44229;DHT22;29904;51.058;5.378;2022-07-10T03:51:01;11.90;99.90
44229;DHT22;29904;51.058;5.378;2022-07-10T03:53:27;11.90;99.90
44229;DHT22;29904;51.058;5.378;2022-07-10T03:55:53;11.80;99.90
44229;DHT22;29904;51.058;5.378;2022-07-10T03:58:19;11.80;99.90
44229;DHT22;29904;51.058;5.378;2022-07-10T04:00:45;11.90;99.90
44229;DHT22;29904;51.058;5.378;2022-07-10T04:03:13;11.90;99.90
44229;DHT22;29904;51.058;5.378;2022-07-10T04:05:39;11.90;99.90
44229;DHT22;29904;51.058;5.378;2022-07-10T04:08:06;11.90;99.90
44229;DHT22;29904;51.058;5.378;2022-07-10T04:10:33;11.90;99.90
44229;DHT22;29904;51.058;5.378;2022-07-10T04:12:58;11.90;99.90
44229;DHT22;29904;51.058;5.378;2022-07-10T04:15:25;11.90;99.90
44229;DHT22;29904;51.058;5.378;2022-07-10T04:17:51;12.00;99.90
44229;DHT22;29904;51.058;5.378;2022-07-10T04:20:18;12.10;99.90
44229;DHT22;29904;51.058;5.378;2022-07-10T04:22:44;12.20;99.90
44229;DHT22;29904;51.058;5.378;2022-07-10T04:25:12;12.30;99.90
44229;DHT22;29904;51.058;5.378;2022-07-10T04:27:38;12.40;99.90
44229;DHT22;29904;51.058;5.378;2022-07-10T04:30:04;12.40;99.90
44229;DHT22;29904;51.058;5.378;2022-07-10T04:32:30;12.50;99.90
44229;DHT22;29904;51.058;5.378;2022-07-10T04:34:57;12.60;99.90
44229;DHT22;29904;51.058;5.378;2022-07-10T04:37:23;12.60;99.90
44229;DHT22;29904;51.058;5.378;2022-07-10T04:39:49;12.60;99.90
44229;DHT22;29904;51.058;5.378;2022-07-10T04:42:15;12.60;99.90
44229;DHT22;29904;51.058;5.378;2022-07-10T04:44:41;12.70;99.90
44229;DHT22;29904;51.058;5.378;2022-07-10T04:47:09;12.70;99.90
44229;DHT22;29904;51.058;5.378;2022-07-10T04:49:35;12.70;99.90
44229;DHT22;29904;51.058;5.378;2022-07-10T04:52:01;12.80;99.90
44229;DHT22;29904;51.058;5.378;2022-07-10T04:54:26;12.70;99.90
44229;DHT22;29904;51.058;5.378;2022-07-10T04:56:54;12.70;99.90
44229;DHT22;29904;51.058;5.378;2022-07-10T04:59:20;12.80;99.90
44229;DHT22;29904;51.058;5.378;2022-07-10T05:01:46;12.80;99.90
44229;DHT22;29904;51.058;5.378;2022-07-10T05:04:12;13.00;99.90
44229;DHT22;29904;51.058;5.378;2022-07-10T05:06:38;13.10;99.90
44229;DHT22;29904;51.058;5.378;2022-07-10T05:09:03;13.30;99.90
44229;DHT22;29904;51.058;5.378;2022-07-10T05:11:29;13.40;99.90
44229;DHT22;29904;51.058;5.378;2022-07-10T05:13:57;13.50;99.90
44229;DHT22;29904;51.058;5.378;2022-07-10T05:16:22;13.70;99.90
44229;DHT22;29904;51.058;5.378;2022-07-10T05:18:48;13.70;99.90
44229;DHT22;29904;51.058;5.378;2022-07-10T05:21:14;13.70;99.90
44229;DHT22;29904;51.058;5.378;2022-07-10T05:23:40;14.00;99.90
44229;DHT22;29904;51.058;5.378;2022-07-10T05:26:06;14.00;99.90
44229;DHT22;29904;51.058;5.378;2022-07-10T05:28:32;14.20;99.90
44229;DHT22;29904;51.058;5.378;2022-07-10T05:30:58;14.30;99.90
44229;DHT22;29904;51.058;5.378;2022-07-10T05:33:25;14.30;99.90
44229;DHT22;29904;51.058;5.378;2022-07-10T05:35:54;14.30;99.90
44229;DHT22;29904;51.058;5.378;2022-07-10T05:38:19;14.40;99.90
44229;DHT22;29904;51.058;5.378;2022-07-10T05:40:47;14.30;99.90
44229;DHT22;29904;51.058;5.378;2022-07-10T05:43:14;14.50;99.90
44229;DHT22;29904;51.058;5.378;2022-07-10T05:45:40;14.70;99.90
44229;DHT22;29904;51.058;5.378;2022-07-10T05:48:05;14.70;99.90
44229;DHT22;29904;51.058;5.378;2022-07-10T05:50:31;14.80;99.90
44229;DHT22;29904;51.058;5.378;2022-07-10T05:52:57;14.80;99.90
44229;DHT22;29904;51.058;5.378;2022-07-10T05:55:23;14.80;99.90
44229;DHT22;29904;51.058;5.378;2022-07-10T05:57:49;14.80;99.90
44229;DHT22;29904;51.058;5.378;2022-07-10T06:00:15;15.00;99.90
44229;DHT22;29904;51.058;5.378;2022-07-10T06:02:41;15.00;99.90
44229;DHT22;29904;51.058;5.378;2022-07-10T06:05:07;15.20;99.90
44229;DHT22;29904;51.058;5.378;2022-07-10T06:07:33;15.40;99.90
44229;DHT22;29904;51.058;5.378;2022-07-10T06:10:00;15.60;99.90
44229;DHT22;29904;51.058;5.378;2022-07-10T06:12:26;15.80;99.90
44229;DHT22;29904;51.058;5.378;2022-07-10T06:14:51;15.90;99.90
44229;DHT22;29904;51.058;5.378;2022-07-10T06:17:17;15.90;99.90
44229;DHT22;29904;51.058;5.378;2022-07-10T06:19:43;15.80;99.90
44229;DHT22;29904;51.058;5.378;2022-07-10T06:22:08;15.70;99.90
44229;DHT22;29904;51.058;5.378;2022-07-10T06:24:53;15.70;99.90
44229;DHT22;29904;51.058;5.378;2022-07-10T06:27:18;15.70;99.90
44229;DHT22;29904;51.058;5.378;2022-07-10T06:29:44;15.60;99.90
44229;DHT22;29904;51.058;5.378;2022-07-10T06:32:10;15.50;99.90
44229;DHT22;29904;51.058;5.378;2022-07-10T06:34:36;15.60;99.90
44229;DHT22;29904;51.058;5.378;2022-07-10T06:37:04;15.60;99.90
44229;DHT22;29904;51.058;5.378;2022-07-10T06:39:32;15.70;99.90
44229;DHT22;29904;51.058;5.378;2022-07-10T06:42:02;15.70;99.90
44229;DHT22;29904;51.058;5.378;2022-07-10T06:44:30;15.70;99.90
44229;DHT22;29904;51.058;5.378;2022-07-10T06:46:58;15.70;99.90
44229;DHT22;29904;51.058;5.378;2022-07-10T06:49:46;15.80;99.90
44229;DHT22;29904;51.058;5.378;2022-07-10T06:52:14;16.00;99.90
44229;DHT22;29904;51.058;5.378;2022-07-10T06:54:41;16.10;99.90
44229;DHT22;29904;51.058;5.378;2022-07-10T06:57:07;16.20;99.90
44229;DHT22;29904;51.058;5.378;2022-07-10T06:59:34;16.50;99.90
44229;DHT22;29904;51.058;5.378;2022-07-10T07:02:00;16.80;99.90
44229;DHT22;29904;51.058;5.378;2022-07-10T07:04:26;16.90;99.90
44229;DHT22;29904;51.058;5.378;2022-07-10T07:06:52;17.00;99.90
44229;DHT22;29904;51.058;5.378;2022-07-10T07:09:20;17.20;99.90
44229;DHT22;29904;51.058;5.378;2022-07-10T07:11:45;17.30;99.90
44229;DHT22;29904;51.058;5.378;2022-07-10T07:14:11;17.40;99.90
44229;DHT22;29904;51.058;5.378;2022-07-10T07:16:39;17.60;99.90
44229;DHT22;29904;51.058;5.378;2022-07-10T07:19:09;17.70;99.90
44229;DHT22;29904;51.058;5.378;2022-07-10T07:21:37;17.50;99.90
44229;DHT22;29904;51.058;5.378;2022-07-10T07:24:21;17.70;99.90
44229;DHT22;29904;51.058;5.378;2022-07-10T07:26:48;17.90;99.90
44229;DHT22;29904;51.058;5.378;2022-07-10T07:29:15;18.00;99.90
44229;DHT22;29904;51.058;5.378;2022-07-10T07:31:43;17.80;99.90
44229;DHT22;29904;51.058;5.378;2022-07-10T07:34:09;17.70;99.90
44229;DHT22;29904;51.058;5.378;2022-07-10T07:36:35;17.60;99.90
44229;DHT22;29904;51.058;5.378;2022-07-10T07:39:01;17.60;99.90
44229;DHT22;29904;51.058;5.378;2022-07-10T07:41:27;17.70;99.90
44229;DHT22;29904;51.058;5.378;2022-07-10T07:43:52;18.00;99.90
44229;DHT22;29904;51.058;5.378;2022-07-10T07:46:21;18.30;99.90
44229;DHT22;29904;51.058;5.378;2022-07-10T07:48:46;18.70;99.90
44229;DHT22;29904;51.058;5.378;2022-07-10T07:51:12;18.90;99.90
44229;DHT22;29904;51.058;5.378;2022-07-10T07:53:39;19.10;99.90
44229;DHT22;29904;51.058;5.378;2022-07-10T07:56:05;19.40;99.90
44229;DHT22;29904;51.058;5.378;2022-07-10T07:58:31;19.60;99.90
44229;DHT22;29904;51.058;5.378;2022-07-10T08:00:57;19.50;99.90
44229;DHT22;29904;51.058;5.378;2022-07-10T08:03:25;19.50;99.90
44229;DHT22;29904;51.058;5.378;2022-07-10T08:05:53;19.60;99.90
44229;DHT22;29904;51.058;5.378;2022-07-10T08:08:19;19.60;99.90
44229;DHT22;29904;51.058;5.378;2022-07-10T08:10:47;19.60;99.90
44229;DHT22;29904;51.058;5.378;2022-07-10T08:13:15;19.60;99.90
44229;DHT22;29904;51.058;5.378;2022-07-10T08:15:40;19.50;99.90
44229;DHT22;29904;51.058;5.378;2022-07-10T08:18:06;19.80;99.90
44229;DHT22;29904;51.058;5.378;2022-07-10T08:20:32;20.30;99.90
44229;DHT22;29904;51.058;5.378;2022-07-10T08:22:58;20.80;99.90
44229;DHT22;29904;51.058;5.378;2022-07-10T08:25:24;21.20;99.90
44229;DHT22;29904;51.058;5.378;2022-07-10T08:27:50;21.30;99.90
44229;DHT22;29904;51.058;5.378;2022-07-10T08:30:17;21.40;99.90
44229;DHT22;29904;51.058;5.378;2022-07-10T08:32:43;21.40;99.90
44229;DHT22;29904;51.058;5.378;2022-07-10T08:35:10;21.40;99.90
44229;DHT22;29904;51.058;5.378;2022-07-10T08:37:44;21.30;99.90
44229;DHT22;29904;51.058;5.378;2022-07-10T08:40:12;21.10;99.90
44229;DHT22;29904;51.058;5.378;2022-07-10T08:42:40;21.00;99.90
44229;DHT22;29904;51.058;5.378;2022-07-10T08:45:06;20.80;99.90
44229;DHT22;29904;51.058;5.378;2022-07-10T08:47:37;20.90;99.90
44229;DHT22;29904;51.058;5.378;2022-07-10T08:50:18;20.90;99.90
44229;DHT22;29904;51.058;5.378;2022-07-10T08:55:24;21.00;99.90
44229;DHT22;29904;51.058;5.378;2022-07-10T08:57:51;20.80;99.90
44229;DHT22;29904;51.058;5.378;2022-07-10T09:00:19;20.70;99.90
44229;DHT22;29904;51.058;5.378;2022-07-10T09:02:46;20.80;99.90
44229;DHT22;29904;51.058;5.378;2022-07-10T09:05:12;20.70;99.90
44229;DHT22;29904;51.058;5.378;2022-07-10T09:07:38;20.60;99.90
44229;DHT22;29904;51.058;5.378;2022-07-10T09:10:08;20.90;99.90
44229;DHT22;29904;51.058;5.378;2022-07-10T09:13:01;21.40;99.90
44229;DHT22;29904;51.058;5.378;2022-07-10T09:15:32;21.70;99.90
44229;DHT22;29904;51.058;5.378;2022-07-10T09:17:59;21.60;99.90
44229;DHT22;29904;51.058;5.378;2022-07-10T09:23:18;21.70;99.90
44229;DHT22;29904;51.058;5.378;2022-07-10T09:25:52;21.60;99.90
44229;DHT22;29904;51.058;5.378;2022-07-10T09:28:19;21.30;99.90
44229;DHT22;29904;51.058;5.378;2022-07-10T09:30:46;21.00;99.90
44229;DHT22;29904;51.058;5.378;2022-07-10T09:35:56;20.20;99.90
44229;DHT22;29904;51.058;5.378;2022-07-10T09:38:56;20.00;99.90
44229;DHT22;29904;51.058;5.378;2022-07-10T09:41:28;19.80;99.90
44229;DHT22;29904;51.058;5.378;2022-07-10T09:46:33;19.70;99.90
44229;DHT22;29904;51.058;5.378;2022-07-10T09:49:14;19.60;99.90
44229;DHT22;29904;51.058;5.378;2022-07-10T09:51:44;19.60;99.90
44229;DHT22;29904;51.058;5.378;2022-07-10T09:54:11;19.80;99.90
44229;DHT22;29904;51.058;5.378;2022-07-10T09:56:45;19.80;99.90
44229;DHT22;29904;51.058;5.378;2022-07-10T09:59:14;19.80;99.90
44229;DHT22;29904;51.058;5.378;2022-07-10T10:01:48;19.90;99.90
44229;DHT22;29904;51.058;5.378;2022-07-10T10:04:19;20.00;99.90
44229;DHT22;29904;51.058;5.378;2022-07-10T10:07:05;20.20;99.90
44229;DHT22;29904;51.058;5.378;2022-07-10T10:09:41;20.40;99.90
44229;DHT22;29904;51.058;5.378;2022-07-10T10:12:17;20.50;99.90
44229;DHT22;29904;51.058;5.378;2022-07-10T10:14:47;20.60;99.90
44229;DHT22;29904;51.058;5.378;2022-07-10T10:17:15;20.50;99.90
44229;DHT22;29904;51.058;5.378;2022-07-10T10:19:45;20.30;99.90
44229;DHT22;29904;51.058;5.378;2022-07-10T10:22:29;20.00;99.90
44229;DHT22;29904;51.058;5.378;2022-07-10T10:24:58;19.80;99.90
44229;DHT22;29904;51.058;5.378;2022-07-10T10:27:24;19.60;99.90
44229;DHT22;29904;51.058;5.378;2022-07-10T10:29:51;19.50;99.90
44229;DHT22;29904;51.058;5.378;2022-07-10T10:32:17;19.50;99.90
44229;DHT22;29904;51.058;5.378;2022-07-10T10:34:47;19.70;99.90
44229;DHT22;29904;51.058;5.378;2022-07-10T10:37:36;19.80;99.90
44229;DHT22;29904;51.058;5.378;2022-07-10T10:40:04;20.10;99.90
44229;DHT22;29904;51.058;5.378;2022-07-10T10:42:38;20.30;99.90
44229;DHT22;29904;51.058;5.378;2022-07-10T10:48:05;20.50;99.90
44229;DHT22;29904;51.058;5.378;2022-07-10T10:50:48;20.20;99.90
44229;DHT22;29904;51.058;5.378;2022-07-10T10:53:23;20.10;99.90
44229;DHT22;29904;51.058;5.378;2022-07-10T10:58:40;20.30;99.90
44229;DHT22;29904;51.058;5.378;2022-07-10T11:09:29;20.60;99.90
44229;DHT22;29904;51.058;5.378;2022-07-10T11:14:24;20.40;99.90
44229;DHT22;29904;51.058;5.378;2022-07-10T11:16:54;20.20;99.90
44229;DHT22;29904;51.058;5.378;2022-07-10T11:19:30;20.20;99.90
44229;DHT22;29904;51.058;5.378;2022-07-10T11:24:59;20.60;99.90
44229;DHT22;29904;51.058;5.378;2022-07-10T11:30:51;20.60;99.90
44229;DHT22;29904;51.058;5.378;2022-07-10T11:33:20;21.00;99.90
44229;DHT22;29904;51.058;5.378;2022-07-10T11:35:49;21.30;99.90
44229;DHT22;29904;51.058;5.378;2022-07-10T11:38:25;21.60;99.90
44229;DHT22;29904;51.058;5.378;2022-07-10T11:40:52;22.20;99.90
44229;DHT22;29904;51.058;5.378;2022-07-10T11:43:23;22.30;99.90
44229;DHT22;29904;51.058;5.378;2022-07-10T11:45:52;22.60;99.90
44229;DHT22;29904;51.058;5.378;2022-07-10T11:48:24;22.80;99.90
44229;DHT22;29904;51.058;5.378;2022-07-10T11:50:51;22.80;99.90
44229;DHT22;29904;51.058;5.378;2022-07-10T11:53:24;23.00;99.90
44229;DHT22;29904;51.058;5.378;2022-07-10T11:55:49;22.80;99.90
44229;DHT22;29904;51.058;5.378;2022-07-10T11:58:16;23.00;99.90
44229;DHT22;29904;51.058;5.378;2022-07-10T12:00:42;23.00;99.90
44229;DHT22;29904;51.058;5.378;2022-07-10T12:03:21;23.30;99.90
44229;DHT22;29904;51.058;5.378;2022-07-10T12:05:49;23.50;99.90
44229;DHT22;29904;51.058;5.378;2022-07-10T12:08:16;23.70;99.90
44229;DHT22;29904;51.058;5.378;2022-07-10T12:10:42;23.70;99.90
44229;DHT22;29904;51.058;5.378;2022-07-10T12:13:14;23.80;99.90
44229;DHT22;29904;51.058;5.378;2022-07-10T12:15:45;24.00;99.90
44229;DHT22;29904;51.058;5.378;2022-07-10T12:18:19;24.00;99.90
44229;DHT22;29904;51.058;5.378;2022-07-10T12:20:49;23.90;99.90
44229;DHT22;29904;51.058;5.378;2022-07-10T12:23:16;23.70;99.90
44229;DHT22;29904;51.058;5.378;2022-07-10T12:25:47;23.50;99.90
44229;DHT22;29904;51.058;5.378;2022-07-10T12:28:17;23.50;99.90
44229;DHT22;29904;51.058;5.378;2022-07-10T12:30:47;23.70;99.90
44229;DHT22;29904;51.058;5.378;2022-07-10T12:33:19;23.90;99.90
44229;DHT22;29904;51.058;5.378;2022-07-10T12:36:05;24.00;99.90
44229;DHT22;29904;51.058;5.378;2022-07-10T12:38:33;24.20;99.90
44229;DHT22;29904;51.058;5.378;2022-07-10T12:41:07;24.10;99.90
44229;DHT22;29904;51.058;5.378;2022-07-10T12:43:34;24.10;99.90
44229;DHT22;29904;51.058;5.378;2022-07-10T12:46:23;24.00;99.90
44229;DHT22;29904;51.058;5.378;2022-07-10T12:49:02;24.20;99.90
44229;DHT22;29904;51.058;5.378;2022-07-10T12:51:31;24.10;99.90
44229;DHT22;29904;51.058;5.378;2022-07-10T12:53:57;23.80;99.90
44229;DHT22;29904;51.058;5.378;2022-07-10T12:56:36;23.40;99.90
44229;DHT22;29904;51.058;5.378;2022-07-10T12:59:22;24.00;99.90
44229;DHT22;29904;51.058;5.378;2022-07-10T13:01:50;24.20;99.90
44229;DHT22;29904;51.058;5.378;2022-07-10T13:04:23;23.90;99.90
44229;DHT22;29904;51.058;5.378;2022-07-10T13:06:50;23.70;99.90
44229;DHT22;29904;51.058;5.378;2022-07-10T13:09:20;23.90;99.90
44229;DHT22;29904;51.058;5.378;2022-07-10T13:11:53;24.10;99.90
44229;DHT22;29904;51.058;5.378;2022-07-10T13:14:19;24.00;99.90
44229;DHT22;29904;51.058;5.378;2022-07-10T13:16:45;24.20;99.90
44229;DHT22;29904;51.058;5.378;2022-07-10T13:19:11;23.90;99.90
44229;DHT22;29904;51.058;5.378;2022-07-10T13:21:37;23.70;99.90
44229;DHT22;29904;51.058;5.378;2022-07-10T13:24:04;23.50;99.90
44229;DHT22;29904;51.058;5.378;2022-07-10T13:26:32;23.30;99.90
44229;DHT22;29904;51.058;5.378;2022-07-10T13:28:58;22.90;99.90
44229;DHT22;29904;51.058;5.378;2022-07-10T13:31:25;22.70;99.90
44229;DHT22;29904;51.058;5.378;2022-07-10T13:33:51;22.50;99.90
44229;DHT22;29904;51.058;5.378;2022-07-10T13:36:19;22.50;99.90
44229;DHT22;29904;51.058;5.378;2022-07-10T13:38:45;22.70;99.90
44229;DHT22;29904;51.058;5.378;2022-07-10T13:41:12;22.80;99.90
44229;DHT22;29904;51.058;5.378;2022-07-10T13:43:38;23.10;99.90
44229;DHT22;29904;51.058;5.378;2022-07-10T13:46:06;23.40;99.90
44229;DHT22;29904;51.058;5.378;2022-07-10T13:48:32;23.40;99.90
44229;DHT22;29904;51.058;5.378;2022-07-10T13:50:58;23.50;99.90
44229;DHT22;29904;51.058;5.378;2022-07-10T13:53:23;23.90;99.90
44229;DHT22;29904;51.058;5.378;2022-07-10T13:55:49;24.20;99.90
44229;DHT22;29904;51.058;5.378;2022-07-10T13:58:16;24.40;99.90
44229;DHT22;29904;51.058;5.378;2022-07-10T14:00:45;24.50;99.90
44229;DHT22;29904;51.058;5.378;2022-07-10T14:03:11;24.30;99.90
44229;DHT22;29904;51.058;5.378;2022-07-10T14:05:37;24.20;99.90
44229;DHT22;29904;51.058;5.378;2022-07-10T14:08:03;24.30;99.90
44229;DHT22;29904;51.058;5.378;2022-07-10T14:10:29;24.40;99.90
44229;DHT22;29904;51.058;5.378;2022-07-10T14:12:56;24.80;99.90
44229;DHT22;29904;51.058;5.378;2022-07-10T14:15:22;25.00;99.90
44229;DHT22;29904;51.058;5.378;2022-07-10T14:17:48;25.00;99.90
44229;DHT22;29904;51.058;5.378;2022-07-10T14:20:14;24.70;99.90
44229;DHT22;29904;51.058;5.378;2022-07-10T14:22:39;24.40;99.90
44229;DHT22;29904;51.058;5.378;2022-07-10T14:25:07;24.60;99.90
44229;DHT22;29904;51.058;5.378;2022-07-10T14:27:36;24.80;99.90
44229;DHT22;29904;51.058;5.378;2022-07-10T14:30:02;24.90;99.90
44229;DHT22;29904;51.058;5.378;2022-07-10T14:32:28;25.00;99.90
44229;DHT22;29904;51.058;5.378;2022-07-10T14:34:54;25.00;99.90
44229;DHT22;29904;51.058;5.378;2022-07-10T14:37:20;24.70;99.90
44229;DHT22;29904;51.058;5.378;2022-07-10T14:39:47;24.40;99.90
44229;DHT22;29904;51.058;5.378;2022-07-10T14:42:13;24.30;99.90
44229;DHT22;29904;51.058;5.378;2022-07-10T14:44:39;24.40;99.90
44229;DHT22;29904;51.058;5.378;2022-07-10T14:47:05;24.50;99.90
44229;DHT22;29904;51.058;5.378;2022-07-10T14:49:32;24.70;99.90
44229;DHT22;29904;51.058;5.378;2022-07-10T14:51:58;24.80;99.90
44229;DHT22;29904;51.058;5.378;2022-07-10T14:54:24;24.80;99.90
44229;DHT22;29904;51.058;5.378;2022-07-10T14:56:52;24.60;99.90
44229;DHT22;29904;51.058;5.378;2022-07-10T14:59:17;24.20;99.90
44229;DHT22;29904;51.058;5.378;2022-07-10T15:01:43;24.00;99.90
44229;DHT22;29904;51.058;5.378;2022-07-10T15:04:11;23.90;99.90
44229;DHT22;29904;51.058;5.378;2022-07-10T15:06:37;23.50;99.90
44229;DHT22;29904;51.058;5.378;2022-07-10T15:09:03;23.30;99.90
44229;DHT22;29904;51.058;5.378;2022-07-10T15:11:29;23.10;99.90
44229;DHT22;29904;51.058;5.378;2022-07-10T15:13:57;23.10;99.90
44229;DHT22;29904;51.058;5.378;2022-07-10T15:16:27;22.90;99.90
44229;DHT22;29904;51.058;5.378;2022-07-10T15:18:53;22.90;99.90
44229;DHT22;29904;51.058;5.378;2022-07-10T15:21:21;23.00;99.90
44229;DHT22;29904;51.058;5.378;2022-07-10T15:23:48;23.20;99.90
44229;DHT22;29904;51.058;5.378;2022-07-10T15:26:14;23.50;99.90
44229;DHT22;29904;51.058;5.378;2022-07-10T15:28:41;23.60;99.90
44229;DHT22;29904;51.058;5.378;2022-07-10T15:31:08;23.70;99.90
44229;DHT22;29904;51.058;5.378;2022-07-10T15:33:34;23.70;99.90
44229;DHT22;29904;51.058;5.378;2022-07-10T15:36:02;23.70;99.90
44229;DHT22;29904;51.058;5.378;2022-07-10T15:38:30;23.70;99.90
44229;DHT22;29904;51.058;5.378;2022-07-10T15:40:56;23.60;99.90
44229;DHT22;29904;51.058;5.378;2022-07-10T15:43:22;23.30;99.90
44229;DHT22;29904;51.058;5.378;2022-07-10T15:45:49;23.20;99.90
44229;DHT22;29904;51.058;5.378;2022-07-10T15:48:15;23.10;99.90
44229;DHT22;29904;51.058;5.378;2022-07-10T15:50:41;23.00;99.90
44229;DHT22;29904;51.058;5.378;2022-07-10T15:53:07;22.90;99.90
44229;DHT22;29904;51.058;5.378;2022-07-10T15:55:33;23.00;99.90
44229;DHT22;29904;51.058;5.378;2022-07-10T15:57:59;22.90;99.90
44229;DHT22;29904;51.058;5.378;2022-07-10T16:00:24;23.00;99.90
44229;DHT22;29904;51.058;5.378;2022-07-10T16:02:52;23.20;99.90
44229;DHT22;29904;51.058;5.378;2022-07-10T16:05:18;23.30;99.90
44229;DHT22;29904;51.058;5.378;2022-07-10T16:07:44;23.30;99.90